Thunder radar more information blitzortung!


Radar de pluja more information rain snow radar


Visita la nostra xarxa de llocs de meteo:

Template documentation
and downloads

And another site



No particular awareness of the weather is required.    There are no Weather-warnings

Pagina Historial Weather Underground text

Diari Resum May 5, 2016 Unitats:  Mètric    Imperial   Tant
« Previous Dia
SegĂźent Dia »
Diari Setmana Mensual Anual Personalitzada
  Maxima: Minima: Media:
Temperatura: 22.7 °C 8.4 °C 16.9 °C
Punt de rosada: 9.8 °C 4.6 °C 7.3 °C
Humitat: 78 % 35 % 55 %
Wind Speed: 24.1 km/h 0.0 km/h 10.2 km/h
RĂ fegues de vent: 24.1 km/h - -
Vent:- - ESE
Pression baro: 1019.9 hPa 1013.8 hPa -
Precipitacions: 0.0 mm    
Historical Graphs
 
 
Dades de taula per May 5, 2016
Temps Temperatura Punt de rosada Pression baro Vent Wind Speed RĂ fegues de vent Humitat Rainfall Rate (Hourly)
00:00 13.6 °C 7.1 °C 1019.9 hPa SW 1.6 km/h 3.2 km/h 65 % 0.0 mm
00:10 10.5 °C 6.3 °C 1017.8 hPa Calm   3.2 km/h 75 % 0.0 mm
00:20 10.4 °C 6.2 °C 1017.8 hPa NNW 1.6 km/h 3.2 km/h 75 % 0.0 mm
00:30 9.4 °C 5.0 °C 1017.8 hPa SW 3.2 km/h 4.8 km/h 74 % 0.0 mm
00:40 9.1 °C 4.9 °C 1017.8 hPa SW 1.6 km/h 4.8 km/h 75 % 0.0 mm
00:50 9.0 °C 4.8 °C 1017.8 hPa SW 3.2 km/h 4.8 km/h 75 % 0.0 mm
01:00 8.6 °C 4.8 °C 1017.8 hPa SW 1.6 km/h 4.8 km/h 77 % 0.0 mm
01:10 8.5 °C 4.7 °C 1016.8 hPa SW 3.2 km/h 4.8 km/h 77 % 0.0 mm
01:20 8.4 °C 4.6 °C 1016.8 hPa WSW 1.6 km/h 3.2 km/h 77 % 0.0 mm
01:30 8.4 °C 4.8 °C 1016.8 hPa Calm   1.6 km/h 78 % 0.0 mm
01:40 8.6 °C 5.0 °C 1016.8 hPa Calm   1.6 km/h 78 % 0.0 mm
01:50 8.8 °C 5.2 °C 1016.8 hPa Calm   3.2 km/h 78 % 0.0 mm
02:00 8.9 °C 5.3 °C 1017.8 hPa Calm     78 % 0.0 mm
02:10 9.3 °C 5.4 °C 1016.8 hPa NNE 3.2 km/h 3.2 km/h 77 % 0.0 mm
02:20 9.2 °C 5.2 °C 1016.8 hPa NNE 1.6 km/h 3.2 km/h 76 % 0.0 mm
02:30 9.2 °C 5.2 °C 1017.8 hPa NW 3.2 km/h 3.2 km/h 76 % 0.0 mm
02:40 9.5 °C 5.5 °C 1017.8 hPa WSW 1.6 km/h 3.2 km/h 76 % 0.0 mm
02:50 10.4 °C 6.3 °C 1017.8 hPa West 4.8 km/h 4.8 km/h 76 % 0.0 mm
03:00 11.1 °C 6.8 °C 1017.8 hPa NNE 3.2 km/h 4.8 km/h 75 % 0.0 mm
03:10 11.5 °C 7.0 °C 1017.8 hPa NE 3.2 km/h 8.0 km/h 74 % 0.0 mm
03:20 11.9 °C 7.2 °C 1017.8 hPa ENE 4.8 km/h 6.4 km/h 73 % 0.0 mm
03:30 12.2 °C 7.5 °C 1017.8 hPa ENE 3.2 km/h 6.4 km/h 73 % 0.0 mm
03:40 12.7 °C 7.8 °C 1017.8 hPa NE 1.6 km/h 4.8 km/h 72 % 0.0 mm
03:50 13.1 °C 7.9 °C 1017.8 hPa NE 4.8 km/h 4.8 km/h 71 % 0.0 mm
04:00 13.6 °C 8.2 °C 1017.8 hPa NNE 4.8 km/h 6.4 km/h 70 % 0.0 mm
04:10 13.8 °C 8.2 °C 1016.8 hPa NE 4.8 km/h 6.4 km/h 69 % 0.0 mm
04:20 14.4 °C 8.6 °C 1016.8 hPa NE 1.6 km/h 6.4 km/h 68 % 0.0 mm
04:30 15.0 °C 9.1 °C 1016.8 hPa NE 1.6 km/h 4.8 km/h 68 % 0.0 mm
04:40 15.5 °C 9.2 °C 1016.8 hPa NNE 4.8 km/h 4.8 km/h 66 % 0.0 mm
04:50 15.8 °C 9.2 °C 1016.8 hPa NNE 3.2 km/h 4.8 km/h 65 % 0.0 mm
05:00 16.3 °C 9.5 °C 1016.8 hPa NE 3.2 km/h 4.8 km/h 64 % 0.0 mm
05:10 16.7 °C 9.6 °C 1015.8 hPa NE 4.8 km/h 4.8 km/h 63 % 0.0 mm
05:20 17.1 °C 9.3 °C 1015.8 hPa NE 3.2 km/h 4.8 km/h 60 % 0.0 mm
05:30 17.6 °C 9.5 °C 1015.8 hPa East 1.6 km/h 6.4 km/h 59 % 0.0 mm
05:35 17.9 °C 9.8 °C 1015.8 hPa East 3.2 km/h 8.0 km/h 59 % 0.0 mm
10:36 17.9 °C 9.8 °C 1015.8 hPa ESE 5.6 km/h 6.4 km/h 59 % 0.0 mm
10:41 18.2 °C 9.8 °C 1015.8 hPa ESE 4.7 km/h 5.3 km/h 58 % 0.0 mm
10:46 18.2 °C 9.6 °C 1015.8 hPa East 9.3 km/h 9.3 km/h 57 % 0.0 mm
10:51 18.3 °C 9.4 °C 1015.8 hPa NE 7.4 km/h 7.4 km/h 56 % 0.0 mm
10:56 18.1 °C 8.9 °C 1014.8 hPa ENE 9.3 km/h 9.3 km/h 55 % 0.0 mm
11:01 18.3 °C 8.8 °C 1014.8 hPa ENE 7.4 km/h 7.4 km/h 54 % 0.0 mm
11:06 18.8 °C 9.6 °C 1014.8 hPa East 10.0 km/h 10.0 km/h 55 % 0.0 mm
11:11 19.1 °C 9.3 °C 1014.8 hPa SSE 7.4 km/h 7.4 km/h 53 % 0.0 mm
11:16 19.3 °C 9.5 °C 1014.8 hPa South 3.7 km/h 3.7 km/h 53 % 0.0 mm
11:21 19.6 °C 9.4 °C 1014.8 hPa ENE 5.0 km/h 5.0 km/h 52 % 0.0 mm
11:26 19.6 °C 9.4 °C 1015.8 hPa ENE 6.4 km/h 6.4 km/h 52 % 0.0 mm
11:31 19.8 °C 9.7 °C 1015.8 hPa ESE 5.8 km/h 5.8 km/h 52 % 0.0 mm
11:36 19.9 °C 9.4 °C 1015.8 hPa SE 9.3 km/h 9.3 km/h 51 % 0.0 mm
11:41 20.2 °C 9.7 °C 1015.8 hPa ENE 9.3 km/h 9.3 km/h 51 % 0.0 mm
11:46 20.2 °C 9.7 °C 1015.8 hPa East 13.0 km/h 13.0 km/h 51 % 0.0 mm
11:51 20.3 °C 9.8 °C 1015.8 hPa NE 5.6 km/h 6.9 km/h 51 % 0.0 mm
11:56 20.6 °C 9.8 °C 1015.8 hPa NNE 9.7 km/h 9.7 km/h 50 % 0.0 mm
12:01 20.7 °C 9.6 °C 1015.8 hPa ESE 13.0 km/h 13.0 km/h 49 % 0.0 mm
12:06 20.8 °C 9.4 °C 1015.8 hPa ESE 10.3 km/h 10.3 km/h 48 % 0.0 mm
12:11 20.9 °C 9.5 °C 1015.8 hPa SSW 9.3 km/h 9.3 km/h 48 % 0.0 mm
12:16 21.2 °C 9.4 °C 1015.8 hPa ENE 7.4 km/h 7.4 km/h 47 % 0.0 mm
12:21 21.4 °C 9.6 °C 1015.8 hPa ESE 7.4 km/h 7.4 km/h 47 % 0.0 mm
12:26 21.4 °C 9.3 °C 1015.8 hPa ESE 11.1 km/h 11.4 km/h 46 % 0.0 mm
12:31 21.3 °C 8.9 °C 1015.8 hPa ESE 13.0 km/h 13.0 km/h 45 % 0.0 mm
12:36 21.6 °C 9.2 °C 1015.8 hPa SE 7.4 km/h 7.4 km/h 45 % 0.0 mm
12:41 21.8 °C 9.0 °C 1015.8 hPa ESE 13.0 km/h 13.0 km/h 44 % 0.0 mm
12:46 21.8 °C 8.7 °C 1015.8 hPa ESE 11.4 km/h 11.4 km/h 43 % 0.0 mm
12:51 22.0 °C 8.8 °C 1015.8 hPa SSW 7.4 km/h 7.4 km/h 43 % 0.0 mm
12:56 22.2 °C 9.4 °C 1015.8 hPa ENE 14.8 km/h 14.8 km/h 44 % 0.0 mm
13:01 21.7 °C 8.2 °C 1015.8 hPa ESE 13.0 km/h 13.0 km/h 42 % 0.0 mm
13:06 22.3 °C 8.8 °C 1015.8 hPa SSW 10.0 km/h 10.0 km/h 42 % 0.0 mm
13:11 22.1 °C 8.2 °C 1015.8 hPa SSE 14.8 km/h 14.8 km/h 41 % 0.0 mm
13:16 22.3 °C 8.1 °C 1015.8 hPa ESE 13.0 km/h 13.0 km/h 40 % 0.0 mm
13:21 22.2 °C 7.9 °C 1015.8 hPa SE 11.1 km/h 11.1 km/h 40 % 0.0 mm
13:26 22.3 °C 8.1 °C 1014.8 hPa WNW 13.0 km/h 13.0 km/h 40 % 0.0 mm
13:31 22.3 °C 7.7 °C 1014.8 hPa ENE 16.7 km/h 16.7 km/h 39 % 0.0 mm
13:36 22.3 °C 7.7 °C 1014.8 hPa South 9.3 km/h 9.3 km/h 39 % 0.0 mm
13:41 22.4 °C 7.8 °C 1014.8 hPa South 16.7 km/h 16.7 km/h 39 % 0.0 mm
13:46 22.2 °C 7.2 °C 1014.8 hPa ESE 21.2 km/h 21.2 km/h 38 % 0.0 mm
13:51 21.8 °C 6.8 °C 1014.8 hPa ENE 14.8 km/h 14.8 km/h 38 % 0.0 mm
13:56 21.8 °C 7.2 °C 1014.8 hPa South 11.9 km/h 11.9 km/h 39 % 0.0 mm
14:01 21.8 °C 6.8 °C 1014.8 hPa NE 16.7 km/h 16.7 km/h 38 % 0.0 mm
14:06 21.8 °C 6.8 °C 1014.8 hPa NE 14.8 km/h 14.8 km/h 38 % 0.0 mm
14:11 21.7 °C 6.4 °C 1014.8 hPa ESE 13.0 km/h 13.0 km/h 37 % 0.0 mm
14:16 22.0 °C 7.0 °C 1014.8 hPa SSW 10.3 km/h 10.3 km/h 38 % 0.0 mm
14:21 21.9 °C 6.6 °C 1014.8 hPa ESE 11.1 km/h 11.1 km/h 37 % 0.0 mm
14:26 22.3 °C 7.3 °C 1014.8 hPa ESE 9.3 km/h 9.3 km/h 38 % 0.0 mm
14:31 22.4 °C 7.0 °C 1014.8 hPa ESE 14.0 km/h 14.0 km/h 37 % 0.0 mm
14:36 22.6 °C 6.8 °C 1014.8 hPa East 9.3 km/h 9.3 km/h 36 % 0.0 mm
14:41 22.4 °C 7.0 °C 1014.8 hPa SSW 9.0 km/h 9.0 km/h 37 % 0.0 mm
14:46 22.7 °C 6.8 °C 1014.8 hPa ESE 16.7 km/h 16.7 km/h 36 % 0.0 mm
14:51 22.2 °C 6.8 °C 1014.8 hPa ESE 13.0 km/h 13.0 km/h 37 % 0.0 mm
14:56 22.5 °C 6.7 °C 1014.8 hPa South 16.7 km/h 16.7 km/h 36 % 0.0 mm
15:01 22.5 °C 6.3 °C 1014.8 hPa East 11.1 km/h 11.1 km/h 35 % 0.0 mm
15:06 22.3 °C 6.5 °C 1014.8 hPa SSE 9.3 km/h 9.3 km/h 36 % 0.0 mm
15:12 22.3 °C 6.5 °C 1013.8 hPa ESE 9.3 km/h 10.0 km/h 36 % 0.0 mm
15:17 22.2 °C 6.4 °C 1013.8 hPa East 9.3 km/h 9.3 km/h 36 % 0.0 mm
15:22 22.4 °C 6.6 °C 1013.8 hPa ESE 9.3 km/h 9.3 km/h 36 % 0.0 mm
15:27 22.1 °C 6.3 °C 1014.8 hPa SSE 13.0 km/h 13.0 km/h 36 % 0.0 mm
15:32 21.6 °C 5.9 °C 1014.8 hPa NNE 24.1 km/h 24.1 km/h 36 % 0.0 mm
15:37 21.7 °C 5.9 °C 1014.8 hPa ESE 20.4 km/h 20.4 km/h 36 % 0.0 mm
15:42 21.8 °C 6.1 °C 1014.8 hPa ENE 16.7 km/h 16.7 km/h 36 % 0.0 mm
15:47 21.4 °C 5.7 °C 1014.8 hPa ESE 15.6 km/h 15.6 km/h 36 % 0.0 mm
15:52 21.3 °C 5.6 °C 1014.8 hPa ENE 20.4 km/h 20.4 km/h 36 % 0.0 mm
15:57 21.7 °C 6.4 °C 1013.8 hPa ESE 15.6 km/h 15.6 km/h 37 % 0.0 mm
16:02 21.6 °C 5.9 °C 1013.8 hPa ESE 16.7 km/h 16.7 km/h 36 % 0.0 mm
16:07 21.5 °C 5.8 °C 1013.8 hPa ESE 17.2 km/h 17.2 km/h 36 % 0.0 mm
16:12 22.0 °C 6.2 °C 1014.8 hPa East 13.7 km/h 13.7 km/h 36 % 0.0 mm
16:17 21.7 °C 5.9 °C 1014.8 hPa SE 18.5 km/h 18.5 km/h 36 % 0.0 mm
16:22 21.8 °C 6.1 °C 1014.8 hPa SSE 13.0 km/h 13.0 km/h 36 % 0.0 mm
16:27 21.7 °C 5.9 °C 1014.8 hPa ESE 20.4 km/h 20.4 km/h 36 % 0.0 mm
16:32 21.5 °C 5.8 °C 1014.8 hPa ESE 18.5 km/h 18.5 km/h 36 % 0.0 mm
16:37 21.4 °C 5.7 °C 1014.8 hPa ESE 20.6 km/h 20.6 km/h 36 % 0.0 mm
16:42 21.3 °C 5.6 °C 1014.8 hPa ESE 17.5 km/h 17.5 km/h 36 % 0.0 mm
16:47 21.2 °C 5.5 °C 1014.8 hPa ESE 24.1 km/h 24.1 km/h 36 % 0.0 mm
16:52 21.1 °C 5.4 °C 1014.8 hPa ENE 9.3 km/h 9.3 km/h 36 % 0.0 mm
16:57 20.8 °C 5.6 °C 1014.8 hPa SE 22.2 km/h 22.2 km/h 37 % 0.0 mm
17:02 20.7 °C 5.5 °C 1014.8 hPa ESE 14.8 km/h 14.8 km/h 37 % 0.0 mm
17:07 20.4 °C 5.2 °C 1014.8 hPa ESE 20.4 km/h 20.4 km/h 37 % 0.0 mm
17:12 20.4 °C 5.2 °C 1014.8 hPa ESE 18.5 km/h 18.5 km/h 37 % 0.0 mm
17:17 20.4 °C 5.6 °C 1014.8 hPa East 16.7 km/h 16.7 km/h 38 % 0.0 mm
17:22 20.0 °C 5.2 °C 1014.8 hPa ESE 20.4 km/h 20.4 km/h 38 % 0.0 mm
17:27 20.0 °C 5.2 °C 1014.8 hPa ESE 13.0 km/h 13.0 km/h 38 % 0.0 mm
17:32 19.6 °C 5.6 °C 1014.8 hPa ESE 20.4 km/h 20.4 km/h 40 % 0.0 mm
17:37 19.6 °C 5.6 °C 1014.8 hPa ENE 14.8 km/h 14.8 km/h 40 % 0.0 mm
17:42 19.6 °C 6.0 °C 1014.8 hPa NE 14.8 km/h 14.8 km/h 41 % 0.0 mm
17:47 19.7 °C 6.1 °C 1014.8 hPa East 13.0 km/h 13.0 km/h 41 % 0.0 mm
17:52 19.6 °C 6.3 °C 1014.8 hPa ENE 20.4 km/h 20.4 km/h 42 % 0.0 mm
17:57 19.3 °C 6.1 °C 1014.8 hPa ENE 16.7 km/h 16.7 km/h 42 % 0.0 mm
18:02 19.5 °C 6.6 °C 1014.8 hPa ENE 16.7 km/h 16.7 km/h 43 % 0.0 mm
18:07 19.3 °C 6.4 °C 1014.8 hPa ENE 20.6 km/h 20.6 km/h 43 % 0.0 mm
18:12 19.2 °C 6.3 °C 1014.8 hPa East 13.0 km/h 13.0 km/h 43 % 0.0 mm
18:17 19.0 °C 6.4 °C 1014.8 hPa ESE 16.7 km/h 16.7 km/h 44 % 0.0 mm
18:22 18.8 °C 6.6 °C 1014.8 hPa ESE 16.7 km/h 16.7 km/h 45 % 0.0 mm
18:27 18.7 °C 6.5 °C 1014.8 hPa East 14.8 km/h 14.8 km/h 45 % 0.0 mm
18:32 18.7 °C 6.5 °C 1014.8 hPa ESE 16.7 km/h 16.7 km/h 45 % 0.0 mm
18:42 18.4 °C 6.6 °C 1014.8 hPa East 16.7 km/h 16.7 km/h 46 % 0.0 mm
18:47 18.3 °C 6.5 °C 1014.8 hPa NNE 14.8 km/h 14.8 km/h 46 % 0.0 mm
18:52 18.3 °C 6.5 °C 1014.8 hPa East 13.0 km/h 13.0 km/h 46 % 0.0 mm
18:57 18.2 °C 6.7 °C 1014.8 hPa SE 14.8 km/h 14.8 km/h 47 % 0.0 mm
19:02 18.2 °C 7.0 °C 1014.8 hPa SE 9.3 km/h 9.3 km/h 48 % 0.0 mm
19:07 17.9 °C 7.0 °C 1014.8 hPa ESE 16.7 km/h 16.7 km/h 49 % 0.0 mm
19:12 17.8 °C 6.9 °C 1014.8 hPa East 6.1 km/h 6.4 km/h 49 % 0.0 mm
19:17 17.6 °C 6.8 °C 1014.8 hPa SE 14.8 km/h 14.8 km/h 49 % 0.0 mm
19:22 17.2 °C 6.7 °C 1014.8 hPa SSE 13.0 km/h 13.0 km/h 50 % 0.0 mm
19:27 16.9 °C 7.0 °C 1015.8 hPa SE 14.8 km/h 14.8 km/h 52 % 0.0 mm
19:32 16.8 °C 6.9 °C 1015.8 hPa South 9.3 km/h 9.3 km/h 52 % 0.0 mm
19:37 16.7 °C 7.1 °C 1015.8 hPa ESE 7.4 km/h 7.4 km/h 53 % 0.0 mm
19:42 16.6 °C 7.2 °C 1015.8 hPa East 9.3 km/h 9.3 km/h 54 % 0.0 mm
19:47 16.4 °C 6.8 °C 1015.8 hPa SE 14.0 km/h 14.0 km/h 53 % 0.0 mm
19:52 16.3 °C 6.7 °C 1015.8 hPa South 16.7 km/h 16.7 km/h 53 % 0.0 mm
19:57 16.2 °C 6.9 °C 1015.8 hPa ESE 13.0 km/h 13.0 km/h 54 % 0.0 mm
20:02 16.0 °C 6.7 °C 1015.8 hPa East 13.0 km/h 13.0 km/h 54 % 0.0 mm
20:07 15.7 °C 6.7 °C 1015.8 hPa East 16.7 km/h 16.7 km/h 55 % 0.0 mm
20:12 15.5 °C 6.8 °C 1014.8 hPa ENE 14.8 km/h 14.8 km/h 56 % 0.0 mm
20:17 15.4 °C 6.9 °C 1014.8 hPa ESE 13.0 km/h 13.0 km/h 57 % 0.0 mm
20:22 15.2 °C 7.2 °C 1014.8 hPa SE 13.0 km/h 13.0 km/h 59 % 0.0 mm
20:27 15.1 °C 7.4 °C 1014.8 hPa East 13.0 km/h 13.0 km/h 60 % 0.0 mm
20:30 12.8 °C 7.9 °C 1016.8 hPa East 4.8 km/h 4.8 km/h 72 % 0.0 mm
20:32 15.0 °C 7.3 °C 1014.8 hPa ESE 11.1 km/h 11.1 km/h 60 % 0.0 mm
20:37 14.9 °C 7.4 °C 1014.8 hPa ESE 16.7 km/h 16.7 km/h 61 % 0.0 mm
20:40 12.8 °C 8.1 °C 1015.8 hPa ENE 3.2 km/h 6.4 km/h 73 % 0.0 mm
20:42 14.8 °C 7.3 °C 1015.8 hPa ENE 14.8 km/h 14.8 km/h 61 % 0.0 mm
20:47 14.8 °C 7.6 °C 1015.8 hPa ESE 11.1 km/h 11.1 km/h 62 % 0.0 mm
20:52 14.7 °C 7.5 °C 1015.8 hPa ENE 9.3 km/h 9.3 km/h 62 % 0.0 mm
20:57 14.7 °C 7.5 °C 1014.8 hPa East 11.1 km/h 11.1 km/h 62 % 0.0 mm
21:00 12.8 °C 8.1 °C 1015.8 hPa ENE 4.8 km/h 6.4 km/h 73 % 0.0 mm
21:02 14.6 °C 7.6 °C 1014.8 hPa ENE 7.4 km/h 7.4 km/h 63 % 0.0 mm
21:07 14.5 °C 7.8 °C 1014.8 hPa ENE 13.0 km/h 13.0 km/h 64 % 0.0 mm
21:10 12.7 °C 8.0 °C 1015.8 hPa ENE 3.2 km/h 6.4 km/h 73 % 0.0 mm
21:12 14.4 °C 7.9 °C 1015.8 hPa East 13.7 km/h 13.7 km/h 65 % 0.0 mm
21:17 14.3 °C 8.1 °C 1015.8 hPa NNE 16.7 km/h 16.7 km/h 66 % 0.0 mm
21:20 12.7 °C 8.0 °C 1015.8 hPa ENE 4.8 km/h 6.4 km/h 73 % 0.0 mm
21:22 14.3 °C 8.1 °C 1015.8 hPa ESE 16.7 km/h 16.7 km/h 66 % 0.0 mm
21:27 14.2 °C 7.9 °C 1014.8 hPa ESE 13.0 km/h 13.0 km/h 66 % 0.0 mm
21:30 12.6 °C 8.1 °C 1015.8 hPa NE 8.0 km/h 8.0 km/h 74 % 0.0 mm
21:32 14.1 °C 8.1 °C 1014.8 hPa ENE 13.0 km/h 13.0 km/h 67 % 0.0 mm
21:37 14.1 °C 8.1 °C 1014.8 hPa ENE 9.3 km/h 9.3 km/h 67 % 0.0 mm
21:40 12.5 °C 8.0 °C 1015.8 hPa NE 8.0 km/h 8.0 km/h 74 % 0.0 mm
21:42 14.0 °C 7.9 °C 1015.8 hPa ENE 9.3 km/h 9.3 km/h 67 % 0.0 mm
21:47 14.0 °C 8.2 °C 1015.8 hPa East 13.7 km/h 13.7 km/h 68 % 0.0 mm
21:50 12.4 °C 7.9 °C 1015.8 hPa ENE 4.8 km/h 9.7 km/h 74 % 0.0 mm
21:52 13.9 °C 8.1 °C 1015.8 hPa NNE 12.6 km/h 12.6 km/h 68 % 0.0 mm
21:57 13.8 °C 8.0 °C 1015.8 hPa ENE 16.7 km/h 16.7 km/h 68 % 0.0 mm
22:00 12.4 °C 7.9 °C 1015.8 hPa ENE 4.8 km/h 9.7 km/h 74 % 0.0 mm
22:02 13.8 °C 8.0 °C 1015.8 hPa ESE 16.7 km/h 16.7 km/h 68 % 0.0 mm
22:07 13.8 °C 8.0 °C 1015.8 hPa ESE 13.0 km/h 13.0 km/h 68 % 0.0 mm
22:10 12.4 °C 7.9 °C 1014.8 hPa ENE 4.8 km/h 6.4 km/h 74 % 0.0 mm
22:12 13.8 °C 8.0 °C 1016.8 hPa ENE 13.0 km/h 13.0 km/h 68 % 0.0 mm
22:17 13.8 °C 8.0 °C 1016.8 hPa SSW 5.6 km/h 6.9 km/h 68 % 0.0 mm
22:20 12.4 °C 7.9 °C 1014.8 hPa ENE 3.2 km/h 6.4 km/h 74 % 0.0 mm
22:22 13.8 °C 8.0 °C 1016.8 hPa ENE 9.3 km/h 9.3 km/h 68 % 0.0 mm
22:27 13.7 °C 7.9 °C 1016.8 hPa ENE 9.3 km/h 9.3 km/h 68 % 0.0 mm
22:30 12.4 °C 7.9 °C 1015.8 hPa NE 1.6 km/h 4.8 km/h 74 % 0.0 mm
22:32 13.7 °C 7.9 °C 1016.8 hPa NE 7.4 km/h 7.4 km/h 68 % 0.0 mm
22:37 13.7 °C 7.9 °C 1016.8 hPa ESE 11.1 km/h 11.1 km/h 68 % 0.0 mm
22:40 12.4 °C 7.9 °C 1015.8 hPa ENE 1.6 km/h 3.2 km/h 74 % 0.0 mm
22:42 13.6 °C 7.8 °C 1016.8 hPa NE 9.3 km/h 9.3 km/h 68 % 0.0 mm
22:47 13.6 °C 7.8 °C 1016.8 hPa ENE 6.4 km/h 6.4 km/h 68 % 0.0 mm
22:50 12.4 °C 7.7 °C 1015.8 hPa ENE 3.2 km/h 3.2 km/h 73 % 0.0 mm
22:52 13.5 °C 7.7 °C 1016.8 hPa NNE 9.7 km/h 9.7 km/h 68 % 0.0 mm
22:57 13.5 °C 7.7 °C 1016.8 hPa East 9.3 km/h 9.3 km/h 68 % 0.0 mm
23:00 12.4 °C 7.7 °C 1015.8 hPa ENE 4.8 km/h 8.0 km/h 73 % 0.0 mm
23:02 13.5 °C 7.5 °C 1016.8 hPa ENE 7.4 km/h 7.4 km/h 67 % 0.0 mm
23:07 13.4 °C 7.6 °C 1016.8 hPa ENE 7.4 km/h 7.4 km/h 68 % 0.0 mm
23:10 12.3 °C 7.6 °C 1015.8 hPa East 8.0 km/h 9.7 km/h 73 % 0.0 mm
23:12 13.4 °C 7.6 °C 1016.8 hPa ESE 7.4 km/h 7.4 km/h 68 % 0.0 mm
23:17 13.4 °C 7.6 °C 1016.8 hPa ENE 7.4 km/h 7.4 km/h 68 % 0.0 mm
23:20 12.3 °C 7.6 °C 1015.8 hPa ESE 4.8 km/h 6.4 km/h 73 % 0.0 mm
23:22 13.4 °C 7.6 °C 1016.8 hPa East 9.3 km/h 9.3 km/h 68 % 0.0 mm
23:27 13.3 °C 7.5 °C 1016.8 hPa ESE 9.3 km/h 9.3 km/h 68 % 0.0 mm
23:30 12.3 °C 7.6 °C 1015.8 hPa East 4.8 km/h 6.4 km/h 73 % 0.0 mm
23:32 13.3 °C 7.5 °C 1016.8 hPa ENE 7.4 km/h 7.4 km/h 68 % 0.0 mm
23:37 13.3 °C 7.5 °C 1016.8 hPa ENE 7.4 km/h 7.4 km/h 68 % 0.0 mm
23:40 12.3 °C 7.6 °C 1015.8 hPa ENE 3.2 km/h 9.7 km/h 73 % 0.0 mm
23:42 13.3 °C 7.7 °C 1015.8 hPa ESE 8.7 km/h 8.7 km/h 69 % 0.0 mm
23:47 13.3 °C 7.5 °C 1015.8 hPa ESE 5.6 km/h 5.6 km/h 68 % 0.0 mm
23:57 13.2 °C 7.6 °C 1015.8 hPa East 7.4 km/h 7.4 km/h 69 % 0.0 mm
Meteo Sesrovires
Elogis d' Weather Underground - 3.5 mb

Guio original per  Jim McMurry - jmcmurry@mwt.net Adaptat per a la plantilla per  Wim van der Kuil - Leuven-Template.eu

Trobareu la nostra informacio del temps tambe a:

Weather Underground

AWEKAS